sensor_id;sensor_type;location;lat;lon;timestamp;pressure;altitude;pressure_sealevel;temperature;humidity
47430;BME280;33181;49.246;7.372;2023-01-30T00:01:53;99619.44;;;-0.80;84.73
47430;BME280;33181;49.246;7.372;2023-01-30T00:04:18;99625.31;;;-0.73;85.16
47430;BME280;33181;49.246;7.372;2023-01-30T00:06:44;99639.88;;;-0.69;84.42
47430;BME280;33181;49.246;7.372;2023-01-30T00:09:13;99646.94;;;-0.79;84.77
47430;BME280;33181;49.246;7.372;2023-01-30T00:11:39;99642.69;;;-0.81;85.55
47430;BME280;33181;49.246;7.372;2023-01-30T00:14:05;99641.84;;;-0.82;85.60
47430;BME280;33181;49.246;7.372;2023-01-30T00:16:33;99641.22;;;-0.93;86.46
47430;BME280;33181;49.246;7.372;2023-01-30T00:18:59;99635.09;;;-0.89;86.78
47430;BME280;33181;49.246;7.372;2023-01-30T00:21:25;99641.88;;;-0.83;86.92
47430;BME280;33181;49.246;7.372;2023-01-30T00:23:51;99644.34;;;-0.77;86.47
47430;BME280;33181;49.246;7.372;2023-01-30T00:26:16;99634.06;;;-0.79;86.21
47430;BME280;33181;49.246;7.372;2023-01-30T00:28:42;99623.88;;;-0.86;86.76
47430;BME280;33181;49.246;7.372;2023-01-30T00:31:08;99631.53;;;-0.82;87.02
47430;BME280;33181;49.246;7.372;2023-01-30T00:33:35;99616.19;;;-0.89;87.40
47430;BME280;33181;49.246;7.372;2023-01-30T00:36:02;99623.16;;;-0.93;88.28
47430;BME280;33181;49.246;7.372;2023-01-30T00:38:28;99632.63;;;-0.95;88.86
47430;BME280;33181;49.246;7.372;2023-01-30T00:40:54;99627.53;;;-0.98;89.22
47430;BME280;33181;49.246;7.372;2023-01-30T00:43:20;99630.84;;;-0.91;89.20
47430;BME280;33181;49.246;7.372;2023-01-30T00:46:29;99622.88;;;-0.79;89.39
47430;BME280;33181;49.246;7.372;2023-01-30T00:49:14;99609.06;;;-0.77;88.60
47430;BME280;33181;49.246;7.372;2023-01-30T00:51:40;99598.78;;;-0.78;88.08
47430;BME280;33181;49.246;7.372;2023-01-30T00:54:06;99589.41;;;-0.82;88.37
47430;BME280;33181;49.246;7.372;2023-01-30T00:56:32;99585.06;;;-0.79;88.97
47430;BME280;33181;49.246;7.372;2023-01-30T00:58:58;99566.31;;;-0.87;89.16
47430;BME280;33181;49.246;7.372;2023-01-30T01:01:23;99572.94;;;-0.75;88.84
47430;BME280;33181;49.246;7.372;2023-01-30T01:03:49;99577.44;;;-0.85;89.08
47430;BME280;33181;49.246;7.372;2023-01-30T01:06:15;99580.09;;;-0.89;89.47
47430;BME280;33181;49.246;7.372;2023-01-30T01:08:41;99573.22;;;-0.89;89.36
47430;BME280;33181;49.246;7.372;2023-01-30T01:11:06;99568.25;;;-0.98;90.31
47430;BME280;33181;49.246;7.372;2023-01-30T01:13:33;99575.00;;;-0.91;90.99
47430;BME280;33181;49.246;7.372;2023-01-30T01:15:58;99576.50;;;-0.82;90.51
47430;BME280;33181;49.246;7.372;2023-01-30T01:18:24;99581.72;;;-0.84;90.77
47430;BME280;33181;49.246;7.372;2023-01-30T01:20:51;99554.19;;;-0.83;90.04
47430;BME280;33181;49.246;7.372;2023-01-30T01:23:16;99562.91;;;-0.89;90.60
47430;BME280;33181;49.246;7.372;2023-01-30T01:25:42;99562.25;;;-0.99;91.18
47430;BME280;33181;49.246;7.372;2023-01-30T01:28:08;99541.44;;;-0.89;91.84
47430;BME280;33181;49.246;7.372;2023-01-30T01:30:34;99547.47;;;-0.90;91.10
47430;BME280;33181;49.246;7.372;2023-01-30T01:32:59;99543.16;;;-0.90;91.24
47430;BME280;33181;49.246;7.372;2023-01-30T01:35:25;99534.41;;;-0.83;90.93
47430;BME280;33181;49.246;7.372;2023-01-30T01:37:56;99550.84;;;-0.87;91.43
47430;BME280;33181;49.246;7.372;2023-01-30T01:40:22;99565.34;;;-0.81;91.69
47430;BME280;33181;49.246;7.372;2023-01-30T01:43:22;99551.47;;;-0.77;91.17
47430;BME280;33181;49.246;7.372;2023-01-30T01:45:54;99554.88;;;-0.75;91.56
47430;BME280;33181;49.246;7.372;2023-01-30T01:48:45;99546.75;;;-0.58;91.11
47430;BME280;33181;49.246;7.372;2023-01-30T01:51:18;99535.03;;;-0.72;90.85
47430;BME280;33181;49.246;7.372;2023-01-30T01:53:52;99523.16;;;-0.79;91.28
47430;BME280;33181;49.246;7.372;2023-01-30T01:56:21;99527.88;;;-0.60;91.06
47430;BME280;33181;49.246;7.372;2023-01-30T01:58:51;99527.16;;;-0.65;89.70
47430;BME280;33181;49.246;7.372;2023-01-30T02:01:19;99504.72;;;-0.63;89.59
47430;BME280;33181;49.246;7.372;2023-01-30T02:03:51;99505.75;;;-0.69;90.18
47430;BME280;33181;49.246;7.372;2023-01-30T02:06:20;99494.41;;;-0.62;90.45
47430;BME280;33181;49.246;7.372;2023-01-30T02:09:04;99489.38;;;-0.68;90.10
47430;BME280;33181;49.246;7.372;2023-01-30T02:11:50;99490.97;;;-0.62;89.92
47430;BME280;33181;49.246;7.372;2023-01-30T02:14:18;99490.84;;;-0.58;89.81
47430;BME280;33181;49.246;7.372;2023-01-30T02:16:47;99490.00;;;-0.58;90.02
47430;BME280;33181;49.246;7.372;2023-01-30T02:19:44;99501.38;;;-0.65;90.85
47430;BME280;33181;49.246;7.372;2023-01-30T02:31:49;99496.75;;;-0.91;91.22
47430;BME280;33181;49.246;7.372;2023-01-30T02:35:18;99487.31;;;-0.91;92.28
47430;BME280;33181;49.246;7.372;2023-01-30T02:38:06;99475.28;;;-0.90;92.37
47430;BME280;33181;49.246;7.372;2023-01-30T02:46:20;99458.97;;;-0.93;92.94
47430;BME280;33181;49.246;7.372;2023-01-30T02:49:08;99460.84;;;-0.98;93.16
47430;BME280;33181;49.246;7.372;2023-01-30T02:51:40;99461.56;;;-0.93;92.96
47430;BME280;33181;49.246;7.372;2023-01-30T02:54:11;99482.94;;;-0.87;93.26
47430;BME280;33181;49.246;7.372;2023-01-30T02:56:48;99477.78;;;-0.87;93.60
47430;BME280;33181;49.246;7.372;2023-01-30T02:59:40;99474.09;;;-0.77;92.92
47430;BME280;33181;49.246;7.372;2023-01-30T03:03:05;99463.03;;;-0.82;92.47
47430;BME280;33181;49.246;7.372;2023-01-30T03:05:44;99456.19;;;-0.82;92.57
47430;BME280;33181;49.246;7.372;2023-01-30T03:10:58;99449.44;;;-0.89;93.64
47430;BME280;33181;49.246;7.372;2023-01-30T03:13:39;99463.94;;;-0.83;94.10
47430;BME280;33181;49.246;7.372;2023-01-30T03:16:45;99461.25;;;-0.79;95.40
47430;BME280;33181;49.246;7.372;2023-01-30T03:19:13;99453.47;;;-0.77;95.04
47430;BME280;33181;49.246;7.372;2023-01-30T03:21:43;99442.63;;;-0.91;96.44
47430;BME280;33181;49.246;7.372;2023-01-30T03:24:10;99445.06;;;-0.85;96.55
47430;BME280;33181;49.246;7.372;2023-01-30T03:26:43;99448.53;;;-0.86;96.39
47430;BME280;33181;49.246;7.372;2023-01-30T03:29:11;99444.06;;;-0.80;96.18
47430;BME280;33181;49.246;7.372;2023-01-30T03:31:36;99453.34;;;-0.73;96.47
47430;BME280;33181;49.246;7.372;2023-01-30T03:34:02;99455.06;;;-0.72;96.04
47430;BME280;33181;49.246;7.372;2023-01-30T03:36:28;99441.41;;;-0.75;96.15
47430;BME280;33181;49.246;7.372;2023-01-30T03:38:54;99444.06;;;-0.80;96.77
47430;BME280;33181;49.246;7.372;2023-01-30T03:41:19;99443.31;;;-0.83;97.22
47430;BME280;33181;49.246;7.372;2023-01-30T03:43:45;99447.53;;;-0.81;97.71
47430;BME280;33181;49.246;7.372;2023-01-30T03:46:11;99445.78;;;-0.79;98.58
47430;BME280;33181;49.246;7.372;2023-01-30T03:48:39;99446.56;;;-0.75;98.34
47430;BME280;33181;49.246;7.372;2023-01-30T03:51:05;99451.78;;;-0.78;98.82
47430;BME280;33181;49.246;7.372;2023-01-30T03:53:31;99450.91;;;-0.77;99.04
47430;BME280;33181;49.246;7.372;2023-01-30T03:55:56;99452.56;;;-0.75;99.64
47430;BME280;33181;49.246;7.372;2023-01-30T03:58:22;99456.75;;;-0.71;99.80
47430;BME280;33181;49.246;7.372;2023-01-30T04:00:48;99460.94;;;-0.65;99.52
47430;BME280;33181;49.246;7.372;2023-01-30T04:03:14;99444.50;;;-0.61;99.31
47430;BME280;33181;49.246;7.372;2023-01-30T04:05:42;99445.38;;;-0.62;99.03
47430;BME280;33181;49.246;7.372;2023-01-30T04:08:09;99442.75;;;-0.60;99.22
47430;BME280;33181;49.246;7.372;2023-01-30T04:10:35;99435.16;;;-0.66;100.00
47430;BME280;33181;49.246;7.372;2023-01-30T04:13:01;99431.66;;;-0.64;100.00
47430;BME280;33181;49.246;7.372;2023-01-30T04:15:26;99429.75;;;-0.56;100.00
47430;BME280;33181;49.246;7.372;2023-01-30T04:17:52;99419.59;;;-0.62;100.00
47430;BME280;33181;49.246;7.372;2023-01-30T04:20:18;99433.31;;;-0.61;100.00
47430;BME280;33181;49.246;7.372;2023-01-30T04:22:45;99430.53;;;-0.54;100.00
47430;BME280;33181;49.246;7.372;2023-01-30T04:25:10;99410.81;;;-0.55;100.00
47430;BME280;33181;49.246;7.372;2023-01-30T04:27:36;99415.03;;;-0.52;100.00
47430;BME280;33181;49.246;7.372;2023-01-30T04:30:03;99409.88;;;-0.52;100.00
47430;BME280;33181;49.246;7.372;2023-01-30T04:32:29;99419.91;;;-0.41;100.00
47430;BME280;33181;49.246;7.372;2023-01-30T04:34:55;99408.66;;;-0.37;100.00
47430;BME280;33181;49.246;7.372;2023-01-30T04:37:20;99397.59;;;-0.42;99.85
47430;BME280;33181;49.246;7.372;2023-01-30T04:39:46;99401.09;;;-0.45;99.76
47430;BME280;33181;49.246;7.372;2023-01-30T04:42:14;99396.16;;;-0.54;100.00
47430;BME280;33181;49.246;7.372;2023-01-30T04:44:39;99394.34;;;-0.51;100.00
47430;BME280;33181;49.246;7.372;2023-01-30T04:47:05;99394.25;;;-0.46;100.00
47430;BME280;33181;49.246;7.372;2023-01-30T04:49:31;99386.31;;;-0.38;100.00
47430;BME280;33181;49.246;7.372;2023-01-30T04:51:56;99379.44;;;-0.38;100.00
47430;BME280;33181;49.246;7.372;2023-01-30T04:54:22;99377.47;;;-0.30;100.00
47430;BME280;33181;49.246;7.372;2023-01-30T04:56:48;99377.63;;;-0.34;100.00
47430;BME280;33181;49.246;7.372;2023-01-30T04:59:14;99381.72;;;-0.27;100.00
47430;BME280;33181;49.246;7.372;2023-01-30T05:01:40;99380.03;;;-0.28;100.00
47430;BME280;33181;49.246;7.372;2023-01-30T05:04:06;99382.56;;;-0.27;100.00
47430;BME280;33181;49.246;7.372;2023-01-30T05:06:35;99389.31;;;-0.22;100.00
47430;BME280;33181;49.246;7.372;2023-01-30T05:09:02;99400.53;;;-0.22;100.00
47430;BME280;33181;49.246;7.372;2023-01-30T05:11:28;99395.16;;;-0.16;100.00
47430;BME280;33181;49.246;7.372;2023-01-30T05:13:55;99387.25;;;-0.10;100.00
47430;BME280;33181;49.246;7.372;2023-01-30T05:16:22;99371.84;;;-0.13;100.00
47430;BME280;33181;49.246;7.372;2023-01-30T05:18:48;99361.59;;;-0.16;100.00
47430;BME280;33181;49.246;7.372;2023-01-30T05:21:18;99364.97;;;-0.12;100.00
47430;BME280;33181;49.246;7.372;2023-01-30T05:23:45;99355.53;;;-0.13;100.00
47430;BME280;33181;49.246;7.372;2023-01-30T05:26:14;99367.66;;;-0.15;100.00
47430;BME280;33181;49.246;7.372;2023-01-30T05:28:41;99363.25;;;-0.12;100.00
47430;BME280;33181;49.246;7.372;2023-01-30T05:31:11;99356.41;;;-0.14;100.00
47430;BME280;33181;49.246;7.372;2023-01-30T05:33:38;99349.69;;;-0.20;100.00
47430;BME280;33181;49.246;7.372;2023-01-30T05:36:05;99343.53;;;-0.16;100.00
47430;BME280;33181;49.246;7.372;2023-01-30T05:38:31;99330.53;;;-0.11;100.00
47430;BME280;33181;49.246;7.372;2023-01-30T05:41:02;99322.84;;;-0.14;100.00
47430;BME280;33181;49.246;7.372;2023-01-30T05:43:30;99325.59;;;-0.20;100.00
47430;BME280;33181;49.246;7.372;2023-01-30T05:45:57;99334.25;;;-0.21;100.00
47430;BME280;33181;49.246;7.372;2023-01-30T05:48:25;99333.94;;;-0.11;100.00
47430;BME280;33181;49.246;7.372;2023-01-30T05:50:52;99339.91;;;-0.09;100.00
47430;BME280;33181;49.246;7.372;2023-01-30T05:53:19;99341.59;;;-0.08;100.00
47430;BME280;33181;49.246;7.372;2023-01-30T05:55:46;99351.25;;;-0.14;100.00
47430;BME280;33181;49.246;7.372;2023-01-30T05:58:18;99350.41;;;-0.15;100.00
47430;BME280;33181;49.246;7.372;2023-01-30T06:00:44;99359.03;;;-0.16;100.00
47430;BME280;33181;49.246;7.372;2023-01-30T06:03:10;99355.53;;;-0.13;100.00
47430;BME280;33181;49.246;7.372;2023-01-30T06:05:37;99353.69;;;-0.10;100.00
47430;BME280;33181;49.246;7.372;2023-01-30T06:08:03;99346.94;;;-0.14;100.00
47430;BME280;33181;49.246;7.372;2023-01-30T06:10:29;99344.16;;;-0.06;100.00
47430;BME280;33181;49.246;7.372;2023-01-30T06:12:54;99335.44;;;-0.02;100.00
47430;BME280;33181;49.246;7.372;2023-01-30T06:15:20;99325.31;;;-0.10;100.00
47430;BME280;33181;49.246;7.372;2023-01-30T06:17:46;99320.41;;;-0.19;100.00
47430;BME280;33181;49.246;7.372;2023-01-30T06:20:12;99330.63;;;-0.16;100.00
47430;BME280;33181;49.246;7.372;2023-01-30T06:22:38;99332.38;;;-0.16;100.00
47430;BME280;33181;49.246;7.372;2023-01-30T06:25:04;99322.03;;;-0.16;100.00
47430;BME280;33181;49.246;7.372;2023-01-30T06:27:30;99323.50;;;-0.06;100.00
47430;BME280;33181;49.246;7.372;2023-01-30T06:29:56;99326.03;;;-0.05;100.00
47430;BME280;33181;49.246;7.372;2023-01-30T06:32:21;99332.97;;;-0.07;100.00
47430;BME280;33181;49.246;7.372;2023-01-30T06:34:47;99336.91;;;0.07;100.00
47430;BME280;33181;49.246;7.372;2023-01-30T06:37:13;99343.75;;;0.08;100.00
47430;BME280;33181;49.246;7.372;2023-01-30T06:39:41;99336.25;;;0.00;100.00
47430;BME280;33181;49.246;7.372;2023-01-30T06:42:06;99328.50;;;0.00;100.00
47430;BME280;33181;49.246;7.372;2023-01-30T06:44:32;99330.19;;;0.01;100.00
47430;BME280;33181;49.246;7.372;2023-01-30T06:46:58;99337.69;;;0.09;100.00
47430;BME280;33181;49.246;7.372;2023-01-30T06:49:26;99326.31;;;0.16;100.00
47430;BME280;33181;49.246;7.372;2023-01-30T06:51:54;99327.28;;;0.12;100.00
47430;BME280;33181;49.246;7.372;2023-01-30T06:54:19;99335.09;;;0.10;100.00
47430;BME280;33181;49.246;7.372;2023-01-30T06:56:45;99333.28;;;0.12;100.00
47430;BME280;33181;49.246;7.372;2023-01-30T06:59:11;99345.34;;;0.12;100.00
47430;BME280;33181;49.246;7.372;2023-01-30T07:01:36;99359.03;;;0.15;100.00
47430;BME280;33181;49.246;7.372;2023-01-30T07:04:03;99367.66;;;0.16;100.00
47430;BME280;33181;49.246;7.372;2023-01-30T07:06:28;99370.41;;;0.10;100.00
47430;BME280;33181;49.246;7.372;2023-01-30T07:08:54;99361.88;;;0.06;100.00
47430;BME280;33181;49.246;7.372;2023-01-30T07:11:24;99360.94;;;0.09;100.00
47430;BME280;33181;49.246;7.372;2023-01-30T07:13:50;99369.34;;;0.15;100.00
47430;BME280;33181;49.246;7.372;2023-01-30T07:16:16;99364.16;;;0.17;100.00
47430;BME280;33181;49.246;7.372;2023-01-30T07:18:42;99355.34;;;0.24;100.00
47430;BME280;33181;49.246;7.372;2023-01-30T07:21:08;99361.66;;;0.14;100.00
47430;BME280;33181;49.246;7.372;2023-01-30T07:23:34;99357.50;;;0.10;100.00
47430;BME280;33181;49.246;7.372;2023-01-30T07:26:06;99351.34;;;0.14;100.00
47430;BME280;33181;49.246;7.372;2023-01-30T07:28:31;99347.19;;;0.08;100.00
47430;BME280;33181;49.246;7.372;2023-01-30T07:31:00;99355.56;;;0.16;100.00
47430;BME280;33181;49.246;7.372;2023-01-30T07:33:26;99366.50;;;0.25;100.00
47430;BME280;33181;49.246;7.372;2023-01-30T07:35:52;99367.50;;;0.20;100.00
47430;BME280;33181;49.246;7.372;2023-01-30T07:38:18;99369.81;;;0.30;100.00
47430;BME280;33181;49.246;7.372;2023-01-30T07:40:43;99359.78;;;0.19;100.00
47430;BME280;33181;49.246;7.372;2023-01-30T07:43:12;99368.41;;;0.19;100.00
47430;BME280;33181;49.246;7.372;2023-01-30T07:45:48;99374.41;;;0.20;100.00
47430;BME280;33181;49.246;7.372;2023-01-30T07:48:17;99369.19;;;0.21;100.00
47430;BME280;33181;49.246;7.372;2023-01-30T07:50:43;99346.94;;;0.17;100.00
47430;BME280;33181;49.246;7.372;2023-01-30T07:53:15;99348.41;;;0.26;100.00
47430;BME280;33181;49.246;7.372;2023-01-30T07:55:43;99346.84;;;0.20;100.00
47430;BME280;33181;49.246;7.372;2023-01-30T07:58:14;99355.34;;;0.24;100.00
47430;BME280;33181;49.246;7.372;2023-01-30T08:00:40;99348.91;;;0.37;100.00
47430;BME280;33181;49.246;7.372;2023-01-30T08:03:14;99340.41;;;0.34;100.00
47430;BME280;33181;49.246;7.372;2023-01-30T08:05:40;99342.81;;;0.40;100.00
47430;BME280;33181;49.246;7.372;2023-01-30T08:08:06;99369.66;;;0.36;100.00
47430;BME280;33181;49.246;7.372;2023-01-30T08:10:32;99379.09;;;0.37;100.00
47430;BME280;33181;49.246;7.372;2023-01-30T08:12:57;99383.50;;;0.33;100.00
47430;BME280;33181;49.246;7.372;2023-01-30T08:15:23;99391.88;;;0.41;100.00
47430;BME280;33181;49.246;7.372;2023-01-30T08:17:54;99394.31;;;0.46;100.00
47430;BME280;33181;49.246;7.372;2023-01-30T08:20:20;99390.72;;;0.52;100.00
47430;BME280;33181;49.246;7.372;2023-01-30T08:22:46;99372.53;;;0.55;100.00
47430;BME280;33181;49.246;7.372;2023-01-30T08:25:12;99368.06;;;0.60;100.00
47430;BME280;33181;49.246;7.372;2023-01-30T08:27:37;99352.53;;;0.60;100.00
47430;BME280;33181;49.246;7.372;2023-01-30T08:30:04;99356.00;;;0.60;100.00
47430;BME280;33181;49.246;7.372;2023-01-30T08:32:29;99368.97;;;0.59;100.00
47430;BME280;33181;49.246;7.372;2023-01-30T08:34:55;99357.78;;;0.58;100.00
47430;BME280;33181;49.246;7.372;2023-01-30T08:37:21;99361.63;;;0.45;100.00
47430;BME280;33181;49.246;7.372;2023-01-30T08:39:47;99358.91;;;0.50;100.00
47430;BME280;33181;49.246;7.372;2023-01-30T08:42:12;99371.03;;;0.48;100.00
47430;BME280;33181;49.246;7.372;2023-01-30T08:44:38;99364.91;;;0.50;100.00
47430;BME280;33181;49.246;7.372;2023-01-30T08:47:04;99361.47;;;0.50;100.00
47430;BME280;33181;49.246;7.372;2023-01-30T08:49:29;99367.47;;;0.52;100.00
47430;BME280;33181;49.246;7.372;2023-01-30T08:51:55;99366.72;;;0.48;100.00
47430;BME280;33181;49.246;7.372;2023-01-30T08:54:21;99373.66;;;0.46;100.00
47430;BME280;33181;49.246;7.372;2023-01-30T08:56:47;99381.41;;;0.46;100.00
47430;BME280;33181;49.246;7.372;2023-01-30T08:59:12;99369.03;;;0.57;100.00
47430;BME280;33181;49.246;7.372;2023-01-30T09:01:38;99372.34;;;0.61;100.00
47430;BME280;33181;49.246;7.372;2023-01-30T09:04:04;99363.66;;;0.63;100.00
47430;BME280;33181;49.246;7.372;2023-01-30T09:06:30;99355.72;;;0.69;100.00
47430;BME280;33181;49.246;7.372;2023-01-30T09:08:58;99358.59;;;0.60;100.00
47430;BME280;33181;49.246;7.372;2023-01-30T09:11:23;99361.13;;;0.62;100.00
47430;BME280;33181;49.246;7.372;2023-01-30T09:13:49;99356.47;;;0.73;100.00
47430;BME280;33181;49.246;7.372;2023-01-30T09:16:15;99352.25;;;0.71;100.00
47430;BME280;33181;49.246;7.372;2023-01-30T09:18:42;99359.91;;;0.74;100.00
47430;BME280;33181;49.246;7.372;2023-01-30T09:21:10;99357.25;;;0.75;100.00
47430;BME280;33181;49.246;7.372;2023-01-30T09:23:36;99366.06;;;0.69;100.00
47430;BME280;33181;49.246;7.372;2023-01-30T09:26:04;99354.06;;;0.67;100.00
47430;BME280;33181;49.246;7.372;2023-01-30T09:28:31;99347.06;;;0.71;100.00
47430;BME280;33181;49.246;7.372;2023-01-30T09:30:58;99345.31;;;0.71;100.00
47430;BME280;33181;49.246;7.372;2023-01-30T09:33:25;99351.22;;;0.76;100.00
47430;BME280;33181;49.246;7.372;2023-01-30T09:35:51;99340.78;;;0.79;100.00
47430;BME280;33181;49.246;7.372;2023-01-30T09:38:17;99342.66;;;0.74;100.00
47430;BME280;33181;49.246;7.372;2023-01-30T09:41:38;99338.31;;;0.75;100.00
47430;BME280;33181;49.246;7.372;2023-01-30T09:50:47;99331.56;;;0.71;100.00
47430;BME280;33181;49.246;7.372;2023-01-30T09:53:30;99332.31;;;0.74;100.00
47430;BME280;33181;49.246;7.372;2023-01-30T09:55:58;99324.56;;;0.74;100.00
47430;BME280;33181;49.246;7.372;2023-01-30T10:01:29;99323.66;;;0.75;100.00
47430;BME280;33181;49.246;7.372;2023-01-30T10:04:17;99342.56;;;0.77;100.00
47430;BME280;33181;49.246;7.372;2023-01-30T10:12:37;99317.41;;;0.82;100.00
47430;BME280;33181;49.246;7.372;2023-01-30T10:15:22;99325.00;;;0.87;100.00
47430;BME280;33181;49.246;7.372;2023-01-30T10:18:26;99331.31;;;0.78;100.00
47430;BME280;33181;49.246;7.372;2023-01-30T10:24:58;99333.75;;;0.83;100.00
47430;BME280;33181;49.246;7.372;2023-01-30T10:27:30;99320.03;;;0.81;100.00
47430;BME280;33181;49.246;7.372;2023-01-30T10:30:01;99325.06;;;0.85;100.00
47430;BME280;33181;49.246;7.372;2023-01-30T10:32:57;99308.59;;;0.88;100.00
47430;BME280;33181;49.246;7.372;2023-01-30T10:35:33;99313.00;;;0.84;100.00
47430;BME280;33181;49.246;7.372;2023-01-30T10:38:19;99297.91;;;0.99;100.00
47430;BME280;33181;49.246;7.372;2023-01-30T10:41:24;99310.09;;;0.95;100.00
47430;BME280;33181;49.246;7.372;2023-01-30T10:44:12;99315.81;;;1.05;100.00
47430;BME280;33181;49.246;7.372;2023-01-30T10:49:44;99314.81;;;1.09;100.00
47430;BME280;33181;49.246;7.372;2023-01-30T10:52:33;99306.88;;;1.13;100.00
47430;BME280;33181;49.246;7.372;2023-01-30T11:01:26;99305.16;;;1.14;100.00
47430;BME280;33181;49.246;7.372;2023-01-30T11:04:02;99298.28;;;1.13;100.00
47430;BME280;33181;49.246;7.372;2023-01-30T11:06:29;99296.78;;;1.07;100.00
47430;BME280;33181;49.246;7.372;2023-01-30T11:08:56;99302.69;;;1.11;100.00
47430;BME280;33181;49.246;7.372;2023-01-30T11:11:43;99310.44;;;1.11;100.00
47430;BME280;33181;49.246;7.372;2023-01-30T11:14:12;99299.13;;;1.13;100.00
47430;BME280;33181;49.246;7.372;2023-01-30T11:16:53;99299.09;;;1.15;100.00
47430;BME280;33181;49.246;7.372;2023-01-30T11:19:34;99297.31;;;1.17;100.00
47430;BME280;33181;49.246;7.372;2023-01-30T11:22:04;99310.91;;;1.22;100.00
47430;BME280;33181;49.246;7.372;2023-01-30T11:24:44;99302.28;;;1.23;100.00
47430;BME280;33181;49.246;7.372;2023-01-30T11:27:31;99297.88;;;1.25;100.00
47430;BME280;33181;49.246;7.372;2023-01-30T11:30:19;99301.16;;;1.30;100.00
47430;BME280;33181;49.246;7.372;2023-01-30T11:32:48;99301.31;;;1.26;100.00
47430;BME280;33181;49.246;7.372;2023-01-30T11:35:26;99305.50;;;1.30;100.00
47430;BME280;33181;49.246;7.372;2023-01-30T11:37:52;99307.72;;;1.41;100.00
47430;BME280;33181;49.246;7.372;2023-01-30T11:42:58;99299.69;;;1.48;100.00
47430;BME280;33181;49.246;7.372;2023-01-30T11:45:26;99287.53;;;1.50;100.00
47430;BME280;33181;49.246;7.372;2023-01-30T11:48:00;99300.34;;;1.53;100.00
47430;BME280;33181;49.246;7.372;2023-01-30T11:50:49;99288.03;;;1.60;100.00
47430;BME280;33181;49.246;7.372;2023-01-30T11:53:28;99283.59;;;1.63;100.00
47430;BME280;33181;49.246;7.372;2023-01-30T11:55:59;99282.75;;;1.63;100.00
47430;BME280;33181;49.246;7.372;2023-01-30T11:58:31;99282.66;;;1.66;100.00
47430;BME280;33181;49.246;7.372;2023-01-30T12:00:57;99280.06;;;1.66;100.00
47430;BME280;33181;49.246;7.372;2023-01-30T12:03:24;99293.69;;;1.71;100.00
47430;BME280;33181;49.246;7.372;2023-01-30T12:05:54;99291.00;;;1.74;100.00
47430;BME280;33181;49.246;7.372;2023-01-30T12:08:23;99283.56;;;1.65;100.00
47430;BME280;33181;49.246;7.372;2023-01-30T12:10:55;99294.66;;;1.69;100.00
47430;BME280;33181;49.246;7.372;2023-01-30T12:13:37;99278.28;;;1.68;100.00
47430;BME280;33181;49.246;7.372;2023-01-30T12:16:18;99279.28;;;1.64;100.00
47430;BME280;33181;49.246;7.372;2023-01-30T12:19:20;99267.34;;;1.60;100.00
47430;BME280;33181;49.246;7.372;2023-01-30T12:24:47;99263.19;;;1.56;100.00
47430;BME280;33181;49.246;7.372;2023-01-30T12:27:47;99263.28;;;1.53;100.00
47430;BME280;33181;49.246;7.372;2023-01-30T12:30:54;99263.06;;;1.59;100.00
47430;BME280;33181;49.246;7.372;2023-01-30T12:33:23;99264.81;;;1.58;100.00
47430;BME280;33181;49.246;7.372;2023-01-30T12:36:16;99246.19;;;1.72;100.00
47430;BME280;33181;49.246;7.372;2023-01-30T12:50:59;99275.91;;;1.85;100.00
47430;BME280;33181;49.246;7.372;2023-01-30T12:53:56;99270.72;;;1.85;100.00
47430;BME280;33181;49.246;7.372;2023-01-30T12:57:03;99272.47;;;1.85;100.00
47430;BME280;33181;49.246;7.372;2023-01-30T13:13:37;99274.16;;;2.09;100.00
47430;BME280;33181;49.246;7.372;2023-01-30T13:28:00;99279.28;;;2.33;100.00
47430;BME280;33181;49.246;7.372;2023-01-30T13:30:28;99281.97;;;2.31;100.00
47430;BME280;33181;49.246;7.372;2023-01-30T13:33:03;99279.25;;;2.35;100.00
47430;BME280;33181;49.246;7.372;2023-01-30T13:35:35;99281.59;;;2.41;100.00
47430;BME280;33181;49.246;7.372;2023-01-30T13:38:06;99283.28;;;2.42;100.00
47430;BME280;33181;49.246;7.372;2023-01-30T13:40:43;99285.00;;;2.43;100.00
47430;BME280;33181;49.246;7.372;2023-01-30T13:43:29;99283.78;;;2.51;100.00
47430;BME280;33181;49.246;7.372;2023-01-30T13:46:02;99288.59;;;2.61;100.00
47430;BME280;33181;49.246;7.372;2023-01-30T13:48:54;99295.41;;;2.63;100.00
47430;BME280;33181;49.246;7.372;2023-01-30T13:51:48;99299.66;;;2.66;100.00
47430;BME280;33181;49.246;7.372;2023-01-30T13:54:38;99300.16;;;2.74;100.00
47430;BME280;33181;49.246;7.372;2023-01-30T13:57:34;99294.75;;;2.80;100.00
47430;BME280;33181;49.246;7.372;2023-01-30T14:00:31;99292.84;;;2.84;100.00
47430;BME280;33181;49.246;7.372;2023-01-30T14:08:23;99299.66;;;3.08;100.00
47430;BME280;33181;49.246;7.372;2023-01-30T14:10:53;99303.75;;;3.14;100.00
47430;BME280;33181;49.246;7.372;2023-01-30T14:13:22;99305.06;;;3.24;100.00
47430;BME280;33181;49.246;7.372;2023-01-30T14:16:02;99313.63;;;3.26;100.00
47430;BME280;33181;49.246;7.372;2023-01-30T14:18:34;99312.53;;;3.32;100.00
47430;BME280;33181;49.246;7.372;2023-01-30T14:21:24;99313.13;;;3.38;100.00
47430;BME280;33181;49.246;7.372;2023-01-30T14:24:01;99314.09;;;3.36;100.00
47430;BME280;33181;49.246;7.372;2023-01-30T14:45:57;99330.63;;;3.33;100.00
47430;BME280;33181;49.246;7.372;2023-01-30T14:51:34;99344.94;;;3.21;100.00
47430;BME280;33181;49.246;7.372;2023-01-30T14:54:27;99355.41;;;3.20;100.00
47430;BME280;33181;49.246;7.372;2023-01-30T14:57:02;99365.59;;;3.24;100.00
47430;BME280;33181;49.246;7.372;2023-01-30T14:59:56;99363.88;;;3.25;100.00
47430;BME280;33181;49.246;7.372;2023-01-30T15:02:33;99376.06;;;3.23;100.00
47430;BME280;33181;49.246;7.372;2023-01-30T15:11:11;99378.97;;;3.15;100.00
47430;BME280;33181;49.246;7.372;2023-01-30T15:13:57;99380.91;;;3.10;100.00
47430;BME280;33181;49.246;7.372;2023-01-30T15:27:53;99365.56;;;3.04;100.00
47430;BME280;33181;49.246;7.372;2023-01-30T15:30:45;99375.47;;;2.94;100.00
47430;BME280;33181;49.246;7.372;2023-01-30T15:33:17;99393.44;;;2.99;100.00
47430;BME280;33181;49.246;7.372;2023-01-30T15:35:44;99396.03;;;2.99;100.00
47430;BME280;33181;49.246;7.372;2023-01-30T15:38:41;99401.06;;;3.04;100.00